Manzini, Swaziland

9:59 PM SAST on October 21, 2014 (GMT +0200)
Nyonyane | Change Station
CLOSE
Current Station
Airport
Location: Nyonyane,
Elevation: 1050 ft
Nearby Weather Stations

Elev 1050 ft 26.11 °S, 31.45 °E | Updated 59 minutes ago

Rain
Rain
66 °F
Feels Like 66 °F
N
2
Wind Variable Wind from SE
Gusts mph

Today
High -- | Low -- °F
--% Chance of Precip.
Yesterday
High -- | Low -- °F
Precip. -- in
5:14 AM 6:05 PM
Waning Crescent, 4% visible
Pressure 30.54 in
Visibility -9999.0 miles
Clouds
Dew Point 57 °F
Humidity 73%
Rainfall 0.00 in
Snow Depth Not available.
UV Not available.
Pollen Not available.
Air Quality Not available.
Flu Activity Not available.
METAR FDNY 211900Z AUTO 13002KT //// // ////// 19/14 Q1034

More Conditions Fewer Conditions

Pressure 30.54 in
Visibility -9999.0 miles
Clouds
Dew Point 57 °F
Humidity 73%
Rainfall 0.00 in
Snow Depth Not available.
UV Not available.
Pollen Not available.
Air Quality Not available.
Flu Activity Not available.
METAR FDNY 211900Z AUTO 13002KT //// // ////// 19/14 Q1034

More Conditions Fewer Conditions

10-Day Weather Forecast

Almanac

Astronomy

Oct. 21, 2014 Rise Set
Actual Time 5:14 AM SAST 6:05 PM SAST
Civil Twilight 4:50 AM SAST 6:28 PM SAST
Nautical Twilight 4:22 AM SAST 6:56 PM SAST
Astronomical Twilight 3:53 AM SAST 7:25 PM SAST
Moon 3:36 AM SAST 4:01 PM SAST
Length of Visible Light 13h 38m
Length of Day
12h 50m
Tomorrow will be 1m 29s longer.
Waning Crescent, 4% of the Moon is Illuminated
Today
Waning Crescent
Oct 23
New
Oct 30
First Quarter
Nov 6
Full
Nov 14
Last Quarter

Today's Extremes

Country Highs Country Lows

Community

WunderPhotos

Upload Photos

1,763,754 photos uploaded!

Nearby

Snow Depth

Not available.

Earthquake Activity

City Distance Mag. Time & Date
No recent earthquake activity has been reported nearby.
Minimum magnitude displayed is 2.5.

Coastal Water Temperatures

Place Temperature
No Stations Reporting

Nearby Weather Stations